Time;durP1;ratioP1;P1;durP2;ratioP2;P2;SDS_P1;SDS_P2;PMS_P1;PMS_P2;Temp;Humidity;BMP_temperature;BMP_pressure;BME280_temperature;BME280_humidity;BME280_pressure;Samples;Min_cycle;Max_cycle;Signal;HPM_P1;HPM_P2
2022/08/28 00:01:47;;;;;;;19.62;7.67;;;;;;;17.39;86.16;98974.67;1667477;85;21013;-69
2022/08/28 00:04:14;;;;;;;17.75;7.78;;;;;;;17.40;86.27;98971.31;1672623;85;21062;-71
2022/08/28 00:06:40;;;;;;;20.88;7.87;;;;;;;17.44;86.31;98970.19;1666085;85;20945;-70
2022/08/28 00:09:07;;;;;;;18.20;7.87;;;;;;;17.47;86.74;98970.83;1671506;85;21093;-70
2022/08/28 00:11:37;;;;;;;21.05;7.28;;;;;;;17.49;86.96;98971.84;1672866;85;21147;-70
2022/08/28 00:14:06;;;;;;;21.30;8.15;;;;;;;17.51;86.65;98973.65;1671366;85;20918;-70
2022/08/28 00:16:35;;;;;;;19.52;8.03;;;;;;;17.52;86.70;98970.29;1672436;85;20977;-70
2022/08/28 00:19:02;;;;;;;18.15;7.92;;;;;;;17.51;87.00;98973.65;1672005;84;21024;-70
2022/08/28 00:21:30;;;;;;;23.20;7.92;;;;;;;17.49;86.79;98969.86;1670498;84;20950;-67
2022/08/28 00:23:56;;;;;;;27.77;8.10;;;;;;;17.46;86.90;98967.04;1671395;85;21270;-69
2022/08/28 00:29:09;;;;;;;24.45;8.08;;;;;;;17.37;87.44;98963.16;1666924;85;20958;-68
2022/08/28 00:31:39;;;;;;;27.13;7.92;;;;;;;17.36;87.82;98963.53;1671410;85;21442;-69
2022/08/28 00:34:06;;;;;;;18.32;8.10;;;;;;;17.36;88.20;98964.33;1668887;85;21091;-69
2022/08/28 00:36:33;;;;;;;25.75;7.92;;;;;;;17.39;88.80;98966.94;1676473;85;22061;-69
2022/08/28 00:39:00;;;;;;;28.90;8.15;;;;;;;17.40;88.67;98962.98;1679437;85;21096;-69
2022/08/28 00:41:30;;;;;;;22.10;8.65;;;;;;;17.40;88.46;98958.83;1676907;83;21246;-68
2022/08/28 00:44:16;;;;;;;23.00;8.38;;;;;;;17.42;88.70;98955.89;1699739;83;21072;-69
2022/08/28 00:46:45;;;;;;;23.75;8.63;;;;;;;17.43;89.08;98960.85;1695685;83;20970;-69
2022/08/28 00:49:25;;;;;;;17.05;8.33;;;;;;;17.42;89.34;98961.44;1685733;83;20937;-69
2022/08/28 00:52:07;;;;;;;22.70;8.15;;;;;;;17.42;89.82;98953.12;1701966;83;20934;-69
2022/08/28 00:54:40;;;;;;;24.12;8.58;;;;;;;17.40;89.67;98961.02;1691302;83;20878;-69
2022/08/28 00:57:10;;;;;;;27.20;8.10;;;;;;;17.38;89.48;98962.56;1699396;84;21012;-69
2022/08/28 00:59:36;;;;;;;23.32;9.05;;;;;;;17.34;89.32;98958.94;1701916;83;20969;-69
2022/08/28 01:02:05;;;;;;;19.40;7.37;;;;;;;17.29;89.49;98961.48;1702966;84;21146;-69
2022/08/28 01:04:33;;;;;;;21.82;7.92;;;;;;;17.28;90.02;98954.92;1695375;83;20969;-69
2022/08/28 01:07:06;;;;;;;19.23;8.08;;;;;;;17.26;90.59;98956.68;1687412;84;21024;-69
2022/08/28 01:09:33;;;;;;;19.20;8.67;;;;;;;17.26;90.98;98958.66;1691546;84;21017;-69
2022/08/28 01:12:05;;;;;;;19.52;8.10;;;;;;;17.25;91.68;98952.89;1696720;84;21485;-69
2022/08/28 01:14:33;;;;;;;25.23;8.48;;;;;;;17.26;92.05;98956.68;1680885;84;21194;-69
2022/08/28 01:16:59;;;;;;;26.87;8.25;;;;;;;17.25;92.48;98955.66;1700479;83;20974;-69
2022/08/28 01:19:38;;;;;;;30.02;8.85;;;;;;;17.24;92.48;98947.94;1696327;83;21528;-69
2022/08/28 01:22:19;;;;;;;21.17;8.43;;;;;;;17.24;92.47;98945.75;1703432;83;20961;-70
2022/08/28 01:24:46;;;;;;;23.80;8.10;;;;;;;17.25;92.58;98941.80;1702043;83;21018;-70
2022/08/28 01:27:13;;;;;;;26.90;8.40;;;;;;;17.24;92.80;98940.20;1702753;84;21163;-70
2022/08/28 01:29:39;;;;;;;25.60;8.10;;;;;;;17.22;93.05;98940.57;1698752;83;21512;-70
2022/08/28 01:32:07;;;;;;;25.92;8.30;;;;;;;17.22;93.13;98931.45;1704672;83;20957;-70
2022/08/28 01:34:34;;;;;;;24.90;7.60;;;;;;;17.23;93.16;98927.50;1697669;83;20910;-69
2022/08/28 01:37:01;;;;;;;28.75;8.90;;;;;;;17.24;93.00;98927.72;1699313;84;20942;-70
2022/08/28 01:39:28;;;;;;;24.35;8.50;;;;;;;17.23;92.62;98923.34;1695846;84;21248;-70
2022/08/28 01:41:55;;;;;;;26.73;9.85;;;;;;;17.20;92.50;98919.94;1704354;83;20851;-70
2022/08/28 01:44:24;;;;;;;24.50;8.48;;;;;;;17.18;92.63;98912.57;1702481;83;21033;-70
2022/08/28 01:46:53;;;;;;;24.43;8.15;;;;;;;17.18;92.74;98920.30;1698490;84;21012;-70
2022/08/28 01:49:20;;;;;;;17.92;7.75;;;;;;;17.16;92.99;98912.95;1699460;83;21053;-70
2022/08/28 01:51:47;;;;;;;29.27;8.70;;;;;;;17.14;93.38;98913.91;1694478;84;21134;-70
2022/08/28 01:54:13;;;;;;;26.07;9.10;;;;;;;17.12;94.02;98908.73;1694863;83;20926;-70
2022/08/28 01:56:41;;;;;;;30.40;9.03;;;;;;;17.11;94.36;98908.52;1700029;83;20954;-70
2022/08/28 01:59:08;;;;;;;28.95;9.38;;;;;;;17.10;94.47;98907.52;1697499;83;20974;-70
2022/08/28 02:01:35;;;;;;;32.65;9.93;;;;;;;17.08;94.41;98902.34;1695449;84;21092;-70
2022/08/28 02:04:07;;;;;;;29.30;8.93;;;;;;;17.08;94.55;98904.31;1700476;83;21236;-70
2022/08/28 02:06:33;;;;;;;27.22;10.98;;;;;;;17.04;94.60;98907.03;1701423;83;21405;-70
2022/08/28 02:09:00;;;;;;;28.38;10.60;;;;;;;17.00;95.10;98902.02;1695546;83;20977;-70
2022/08/28 02:11:29;;;;;;;32.85;10.60;;;;;;;17.00;95.46;98908.16;1692700;84;20989;-69
2022/08/28 02:13:56;;;;;;;32.03;10.85;;;;;;;16.98;95.93;98914.66;1697773;83;20843;-70
2022/08/28 02:16:23;;;;;;;37.80;11.45;;;;;;;16.98;96.27;98918.23;1696820;83;21094;-69
2022/08/28 02:18:49;;;;;;;24.98;11.08;;;;;;;17.00;96.73;98913.70;1698245;83;21009;-69
2022/08/28 02:21:16;;;;;;;36.60;11.68;;;;;;;17.00;96.74;98910.92;1694576;83;20922;-69
2022/08/28 02:23:43;;;;;;;35.60;12.23;;;;;;;17.02;96.84;98913.54;1706547;83;20910;-69
2022/08/28 02:26:10;;;;;;;24.25;10.63;;;;;;;17.06;96.71;98914.98;1704614;83;20986;-70
2022/08/28 02:28:39;;;;;;;34.27;11.48;;;;;;;17.04;96.76;98918.13;1696442;83;21165;-68
2022/08/28 02:31:08;;;;;;;41.80;12.18;;;;;;;16.99;97.05;98919.03;1693446;84;20855;-69
2022/08/28 02:33:39;;;;;;;29.82;12.43;;;;;;;16.93;97.20;98925.48;1699941;83;20957;-69
2022/08/28 02:36:10;;;;;;;26.70;10.87;;;;;;;16.91;97.75;98920.89;1701057;83;20930;-69
2022/08/28 02:38:37;;;;;;;28.02;11.33;;;;;;;16.90;97.94;98920.68;1703978;84;21056;-69
2022/08/28 02:41:05;;;;;;;23.35;10.53;;;;;;;16.91;97.94;98914.55;1698493;83;21230;-69
2022/08/28 02:43:32;;;;;;;31.75;11.57;;;;;;;16.89;98.14;98915.52;1698285;83;20894;-69
2022/08/28 02:45:59;;;;;;;32.30;12.30;;;;;;;16.83;98.50;98919.19;1682062;84;21485;-69
2022/08/28 02:48:31;;;;;;;30.20;11.57;;;;;;;16.79;98.68;98914.97;1698913;83;21005;-69
2022/08/28 02:51:01;;;;;;;25.75;11.18;;;;;;;16.77;99.03;98915.92;1702270;83;20993;-69
2022/08/28 02:53:29;;;;;;;32.05;11.43;;;;;;;16.76;99.48;98915.71;1702858;83;21768;-70
2022/08/28 02:55:56;;;;;;;26.12;10.95;;;;;;;16.73;99.77;98918.45;1700992;83;20951;-70
2022/08/28 02:58:25;;;;;;;30.10;11.80;;;;;;;16.72;100.00;98912.12;1702534;83;20910;-70
2022/08/28 03:00:53;;;;;;;32.20;11.85;;;;;;;16.75;100.00;98918.89;1704831;83;21477;-70
2022/08/28 03:03:19;;;;;;;25.10;10.32;;;;;;;16.78;100.00;98916.73;1707050;83;21572;-70
2022/08/28 03:05:48;;;;;;;30.37;10.80;;;;;;;16.81;100.00;98921.53;1708601;83;21207;-70
2022/08/28 03:08:15;;;;;;;29.00;11.88;;;;;;;16.82;100.00;98924.52;1704629;83;20949;-69
2022/08/28 03:10:41;;;;;;;30.23;11.00;;;;;;;16.83;100.00;98927.50;1699335;84;21476;-70
2022/08/28 03:13:08;;;;;;;37.75;12.10;;;;;;;16.81;100.00;98923.72;1705866;83;20985;-70
2022/08/28 03:15:36;;;;;;;33.73;11.80;;;;;;;16.81;100.00;98929.84;1699424;83;20954;-70
2022/08/28 03:18:03;;;;;;;47.83;12.20;;;;;;;16.78;100.00;98930.00;1701770;83;21492;-68
2022/08/28 03:20:30;;;;;;;36.48;11.73;;;;;;;16.79;100.00;98928.83;1698010;84;20898;-69
2022/08/28 03:25:42;;;;;;;31.70;9.80;;;;;;;16.81;100.00;98932.03;1702920;83;20930;-68
2022/08/28 03:28:08;;;;;;;35.33;12.07;;;;;;;16.83;100.00;98934.43;1701903;83;21005;-68
2022/08/28 03:30:35;;;;;;;32.30;10.55;;;;;;;16.82;100.00;98931.45;1696878;83;21251;-68
2022/08/28 03:33:02;;;;;;;40.55;11.35;;;;;;;16.84;100.00;98938.22;1691052;83;20966;-69
2022/08/28 03:35:29;;;;;;;33.92;11.20;;;;;;;16.87;100.00;98933.90;1709405;83;21065;-69
2022/08/28 03:37:56;;;;;;;35.05;10.88;;;;;;;16.92;100.00;98936.36;1698157;83;20962;-69
2022/08/28 03:40:23;;;;;;;85.07;13.00;;;;;;;16.99;100.00;98937.86;1699903;83;20930;-69
2022/08/28 03:42:50;;;;;;;43.80;12.23;;;;;;;17.08;100.00;98938.39;1694144;83;21113;-68
2022/08/28 03:45:16;;;;;;;36.65;11.05;;;;;;;17.15;100.00;98941.27;1690102;84;21215;-69
2022/08/28 03:47:44;;;;;;;39.40;11.65;;;;;;;17.22;100.00;98930.86;1700810;83;20972;-68
2022/08/28 03:50:11;;;;;;;36.28;10.50;;;;;;;17.30;100.00;98932.56;1704062;84;20937;-68
2022/08/28 03:52:39;;;;;;;35.58;9.68;;;;;;;17.38;99.71;98927.30;1694808;83;21065;-69
2022/08/28 03:55:08;;;;;;;34.95;10.53;;;;;;;17.49;98.99;98927.44;1693164;84;21762;-70
2022/08/28 03:57:35;;;;;;;35.10;10.50;;;;;;;17.58;98.75;98924.38;1702781;83;21040;-70
2022/08/28 04:00:04;;;;;;;32.55;10.50;;;;;;;17.68;98.99;98926.52;1704013;83;20910;-69
2022/08/28 04:02:33;;;;;;;33.13;10.88;;;;;;;17.76;99.01;98922.66;1691030;84;21013;-69
2022/08/28 04:05:00;;;;;;;39.92;11.05;;;;;;;17.84;99.24;98924.34;1698863;83;20952;-70
2022/08/28 04:07:26;;;;;;;35.38;9.80;;;;;;;17.90;99.27;98922.83;1708152;83;21265;-69
2022/08/28 04:09:53;;;;;;;31.90;11.10;;;;;;;17.97;98.09;98914.55;1701760;83;21020;-69
2022/08/28 04:12:20;;;;;;;32.05;9.53;;;;;;;18.05;97.51;98917.61;1698858;83;21013;-69
2022/08/28 04:14:48;;;;;;;28.57;9.35;;;;;;;18.10;97.34;98913.69;1702841;83;21551;-69
2022/08/28 04:17:15;;;;;;;38.13;10.38;;;;;;;18.16;96.97;98916.33;1701271;84;20922;-70
2022/08/28 04:19:43;;;;;;;40.85;11.03;;;;;;;18.24;96.66;98909.67;1699585;84;21894;-70
2022/08/28 04:22:10;;;;;;;32.33;10.53;;;;;;;18.31;96.51;98912.52;1697584;83;21639;-71
2022/08/28 04:24:38;;;;;;;39.78;10.98;;;;;;;18.39;96.69;98905.84;1704105;83;21001;-70
2022/08/28 04:27:04;;;;;;;28.47;9.65;;;;;;;18.45;95.66;98900.73;1702610;83;21433;-70
2022/08/28 04:29:32;;;;;;;28.65;10.03;;;;;;;18.54;95.13;98910.11;1707274;83;20921;-70
2022/08/28 04:31:59;;;;;;;35.68;10.13;;;;;;;18.62;94.91;98904.27;1699084;84;21247;-70
2022/08/28 04:34:28;;;;;;;31.85;10.32;;;;;;;18.72;95.48;98908.31;1696006;83;21044;-69
2022/08/28 04:36:55;;;;;;;37.05;9.90;;;;;;;18.79;94.42;98913.93;1697701;84;20937;-70
2022/08/28 04:39:21;;;;;;;32.50;9.53;;;;;;;18.86;94.08;98911.20;1697814;84;21460;-70
2022/08/28 04:41:49;;;;;;;38.35;10.43;;;;;;;18.92;93.46;98911.05;1702779;83;21005;-70
2022/08/28 04:44:16;;;;;;;38.42;11.48;;;;;;;18.97;92.66;98912.08;1701370;83;21316;-70
2022/08/28 04:46:43;;;;;;;46.50;13.13;;;;;;;19.05;92.24;98916.51;1698582;83;20886;-71
2022/08/28 04:49:10;;;;;;;45.12;12.33;;;;;;;19.14;91.85;98912.76;1703279;84;20980;-71
2022/08/28 04:51:38;;;;;;;32.85;10.68;;;;;;;19.24;92.12;98916.00;1689549;84;21025;-69
2022/08/28 04:54:06;;;;;;;42.30;12.55;;;;;;;19.34;91.20;98913.87;1698399;84;21006;-70
2022/08/28 04:56:33;;;;;;;63.70;12.00;;;;;;;19.46;90.94;98921.88;1695976;84;21907;-69
2022/08/28 04:59:00;;;;;;;58.02;11.60;;;;;;;19.56;90.16;98923.95;1697638;83;20985;-70
2022/08/28 05:01:27;;;;;;;41.02;10.90;;;;;;;19.62;90.49;98927.97;1704541;83;21029;-69
2022/08/28 05:03:56;;;;;;;42.03;12.73;;;;;;;19.67;90.27;98922.58;1699270;84;20946;-71
2022/08/28 05:06:29;;;;;;;63.87;11.03;;;;;;;19.70;89.32;98930.95;1702420;83;20917;-70
2022/08/28 05:08:54;;;;;;;60.90;18.50;;;;;;;19.72;88.47;98927.19;1707298;83;21954;-70
2022/08/28 05:11:22;;;;;;;142.82;40.20;;;;;;;19.74;87.23;98928.98;1701412;83;20901;-69
2022/08/28 05:13:49;;;;;;;59.27;18.95;;;;;;;19.73;86.95;98934.34;1705927;83;21005;-67
2022/08/28 05:16:18;;;;;;;42.90;13.00;;;;;;;19.74;86.87;98931.77;1706861;83;21451;-67
2022/08/28 05:18:46;;;;;;;47.78;12.53;;;;;;;19.76;87.06;98937.74;1696805;84;20958;-68
2022/08/28 05:21:19;;;;;;;53.35;21.42;;;;;;;19.79;86.85;98930.00;1700445;83;21133;-67
2022/08/28 05:23:47;;;;;;;54.40;19.75;;;;;;;19.89;86.61;98930.42;1702928;83;21493;-68
2022/08/28 05:26:16;;;;;;;42.10;20.20;;;;;;;19.96;84.57;98926.27;1700054;83;20976;-67
2022/08/28 05:28:42;;;;;;;61.30;24.12;;;;;;;20.04;85.68;98925.11;1698335;83;20899;-67
2022/08/28 05:31:11;;;;;;;46.28;17.07;;;;;;;20.11;86.82;98932.09;1699931;83;21085;-67
2022/08/28 05:33:38;;;;;;;36.77;13.03;;;;;;;20.16;87.16;98925.34;1627914;87;21172;-67
2022/08/28 05:36:06;;;;;;;38.67;11.75;;;;;;;20.20;86.15;98917.78;1630740;86;20951;-67
2022/08/28 05:38:33;;;;;;;44.00;10.80;;;;;;;20.27;85.40;98920.55;1653676;86;21447;-68
2022/08/28 05:41:01;;;;;;;36.68;10.20;;;;;;;20.35;83.74;98914.59;1699680;83;20937;-67
2022/08/28 05:43:31;;;;;;;41.80;10.95;;;;;;;20.43;82.87;98910.66;1704080;84;20922;-68
2022/08/28 05:46:00;;;;;;;49.45;12.43;;;;;;;20.52;81.60;98915.84;1706670;83;21172;-67
2022/08/28 05:48:30;;;;;;;49.15;17.30;;;;;;;20.59;80.47;98913.66;1700425;83;20937;-67
2022/08/28 05:51:15;;;;;;;43.13;13.95;;;;;;;20.62;79.90;98910.87;1710800;83;20954;-67
2022/08/28 05:53:43;;;;;;;37.03;10.70;;;;;;;20.67;79.58;98916.65;1707655;83;21461;-67
2022/08/28 05:56:13;;;;;;;45.52;10.63;;;;;;;20.76;79.52;98910.07;1703477;84;20945;-67
2022/08/28 05:58:40;;;;;;;52.20;14.50;;;;;;;20.89;77.64;98906.25;1701426;83;21245;-67
2022/08/28 06:01:15;;;;;;;55.73;11.68;;;;;;;21.01;76.16;98910.82;1701620;83;21080;-67
2022/08/28 06:03:56;;;;;;;53.95;11.33;;;;;;;21.14;74.40;98913.20;1700877;83;20993;-67
2022/08/28 06:06:24;;;;;;;44.50;9.73;;;;;;;21.25;73.13;98918.19;1698582;83;20942;-68
2022/08/28 06:08:56;;;;;;;40.60;8.58;;;;;;;21.40;73.11;98922.51;1703375;84;20994;-67
2022/08/28 06:11:23;;;;;;;42.15;9.53;;;;;;;21.53;71.68;98926.46;1700794;83;21301;-67
2022/08/28 06:13:50;;;;;;;36.40;7.87;;;;;;;21.70;70.90;98927.60;1705683;83;20977;-66
2022/08/28 06:16:16;;;;;;;43.33;8.68;;;;;;;21.84;70.29;98923.95;1700556;83;21702;-67
2022/08/28 06:18:45;;;;;;;40.83;8.83;;;;;;;22.00;69.82;98922.84;1703933;83;20946;-67
2022/08/28 06:21:13;;;;;;;36.13;7.87;;;;;;;22.13;68.98;98922.61;1699655;83;37045;-67
2022/08/28 06:23:41;;;;;;;59.08;9.50;;;;;;;22.27;67.30;98923.12;1697413;83;21195;-67
2022/08/28 06:26:08;;;;;;;42.30;8.25;;;;;;;22.38;67.04;98917.66;1700123;83;20941;-69
2022/08/28 06:28:35;;;;;;;52.70;8.83;;;;;;;22.54;66.48;98916.33;1705266;83;20855;-70
2022/08/28 06:31:03;;;;;;;37.65;7.45;;;;;;;22.70;66.10;98916.59;1696870;83;21001;-69
2022/08/28 06:33:30;;;;;;;35.90;7.45;;;;;;;22.85;66.38;98912.51;1693046;82;21413;-68
2022/08/28 06:35:57;;;;;;;53.70;8.95;;;;;;;23.03;65.55;98914.54;1674270;85;21199;-68
2022/08/28 06:38:25;;;;;;;39.80;7.67;;;;;;;23.21;64.57;98913.54;1674396;85;20970;-68
2022/08/28 06:40:54;;;;;;;59.10;8.80;;;;;;;23.39;64.75;98912.14;1672474;84;20952;-68
2022/08/28 06:43:25;;;;;;;48.00;8.73;;;;;;;23.58;63.32;98919.16;1651977;86;21494;-68
2022/08/28 06:45:53;;;;;;;44.93;7.47;;;;;;;23.76;62.01;98916.73;1654856;85;21110;-68
2022/08/28 06:48:22;;;;;;;41.92;7.80;;;;;;;23.89;61.39;98915.75;1650844;86;21204;-68
2022/08/28 06:50:51;;;;;;;38.35;7.15;;;;;;;24.03;61.35;98919.77;1679214;83;20953;-70
2022/08/28 06:53:22;;;;;;;33.60;7.25;;;;;;;24.19;59.34;98915.55;1703616;83;21543;-69
2022/08/28 06:56:07;;;;;;;50.55;7.87;;;;;;;24.36;59.68;98915.30;1699536;83;20985;-69
2022/08/28 06:58:38;;;;;;;33.45;6.25;;;;;;;24.56;57.58;98916.80;1698217;83;21002;-69
2022/08/28 07:01:11;;;;;;;33.25;7.28;;;;;;;24.76;56.52;98910.48;1689024;84;21143;-69
2022/08/28 07:03:39;;;;;;;47.55;7.47;;;;;;;24.92;54.73;98907.77;1696657;83;20997;-69
2022/08/28 07:06:07;;;;;;;38.63;7.00;;;;;;;25.06;54.41;98904.74;1700831;84;21556;-69
2022/08/28 07:08:34;;;;;;;66.70;8.55;;;;;;;25.18;53.30;98900.52;1699848;83;21105;-69
2022/08/28 07:11:16;;;;;;;54.83;8.75;;;;;;;25.25;53.20;98895.56;1699883;83;21492;-69
2022/08/28 07:13:44;;;;;;;37.17;6.85;;;;;;;25.38;52.73;98898.53;1704898;83;21252;-69
2022/08/28 07:16:12;;;;;;;49.18;6.95;;;;;;;25.52;51.48;98905.25;1697499;83;20867;-69
2022/08/28 07:18:39;;;;;;;46.88;7.25;;;;;;;25.65;50.73;98904.81;1700731;83;20981;-69
2022/08/28 07:21:07;;;;;;;51.25;7.15;;;;;;;25.79;50.37;98907.16;1701334;83;20914;-69
2022/08/28 07:23:35;;;;;;;42.27;6.87;;;;;;;25.93;49.76;98907.64;1699423;84;21010;-69
2022/08/28 07:26:04;;;;;;;30.23;6.95;;;;;;;26.08;49.72;98905.90;1698267;83;21166;-69
2022/08/28 07:28:32;;;;;;;46.95;6.50;;;;;;;26.22;48.84;98905.58;1705054;83;20989;-68
2022/08/28 07:31:09;;;;;;;42.80;7.10;;;;;;;26.34;49.21;98905.55;1697661;83;21121;-69
2022/08/28 07:33:36;;;;;;;43.15;7.12;;;;;;;26.48;47.65;98907.41;1694219;83;20918;-69
2022/08/28 07:36:07;;;;;;;42.53;7.00;;;;;;;26.55;46.97;98905.05;1701808;83;20858;-68
2022/08/28 07:38:34;;;;;;;59.58;8.18;;;;;;;26.65;47.45;98905.38;1692973;82;21319;-67
2022/08/28 07:41:01;;;;;;;42.53;7.37;;;;;;;26.83;47.76;98907.13;1678966;83;21017;-68
2022/08/28 07:46:14;;;;;;;33.73;6.42;;;;;;;27.26;47.09;98913.86;1673903;85;20937;-69
2022/08/28 07:48:41;;;;;;;45.55;8.68;;;;;;;27.48;47.49;98903.41;1677867;83;21516;-69
2022/08/28 07:51:08;;;;;;;48.00;7.30;;;;;;;27.59;46.74;98906.14;1703221;83;21153;-68
2022/08/28 07:53:36;;;;;;;36.25;6.92;;;;;;;27.71;46.64;98912.27;1704392;83;21421;-69
2022/08/28 07:56:04;;;;;;;39.50;6.80;;;;;;;27.91;45.78;98902.98;1703595;83;20910;-70
2022/08/28 07:58:33;;;;;;;42.80;7.25;;;;;;;28.14;45.57;98904.71;1708985;83;21541;-70
2022/08/28 08:01:00;;;;;;;31.35;7.28;;;;;;;28.43;44.90;98901.80;1696986;83;21524;-68
2022/08/28 08:03:30;;;;;;;39.85;6.47;;;;;;;28.73;43.88;98904.03;1698941;84;21154;-69
2022/08/28 08:06:01;;;;;;;50.55;6.83;;;;;;;29.00;43.69;98907.77;1706476;83;21433;-68
2022/08/28 08:08:31;;;;;;;;;;;;;;;29.27;41.95;98901.59;1711150;83;21152;-68
2022/08/28 08:11:13;;;;;;;33.80;6.40;;;;;;;29.66;41.07;98905.05;1700103;84;20479;-69
2022/08/28 08:13:41;;;;;;;27.77;5.30;;;;;;;30.01;40.10;98905.78;1706625;83;20910;-68
2022/08/28 08:16:18;;;;;;;55.40;6.72;;;;;;;30.36;37.28;98902.16;1705186;83;21473;-68
2022/08/28 08:18:47;;;;;;;44.00;5.20;;;;;;;30.52;36.74;98897.66;1698029;84;20898;-70
2022/08/28 08:21:17;;;;;;;77.82;9.35;;;;;;;30.80;35.35;98902.16;1693881;83;21029;-67
2022/08/28 08:23:45;;;;;;;31.37;6.03;;;;;;;31.11;34.65;98897.80;1702985;83;20914;-69
2022/08/28 08:26:17;;;;;;;47.78;6.35;;;;;;;31.34;33.68;98902.08;1697794;84;20913;-69
2022/08/28 08:28:44;;;;;;;34.25;5.03;;;;;;;31.55;34.35;98903.81;1695700;83;21304;-69
2022/08/28 08:31:20;;;;;;;30.15;5.67;;;;;;;31.73;32.02;98895.31;1710690;83;21557;-69
2022/08/28 08:33:50;;;;;;;41.37;5.50;;;;;;;31.87;29.93;98891.00;1700529;83;20989;-69
2022/08/28 08:36:19;;;;;;;54.42;5.97;;;;;;;31.93;30.28;98896.98;1698086;84;20953;-69
2022/08/28 08:38:45;;;;;;;31.75;5.83;;;;;;;32.16;30.62;98894.88;1700472;84;21461;-69
2022/08/28 08:41:21;;;;;;;87.75;8.10;;;;;;;32.47;30.38;98889.55;1700079;84;21140;-69
2022/08/28 08:44:08;;;;;;;151.87;13.13;;;;;;;32.57;30.75;98897.40;1694278;83;20957;-69
2022/08/28 08:47:12;;;;;;;231.65;16.87;;;;;;;32.64;30.49;98889.94;1690485;83;20894;-70
2022/08/28 08:49:43;;;;;;;47.53;6.47;;;;;;;32.63;30.08;98893.42;1700435;83;21057;-70
2022/08/28 08:52:25;;;;;;;57.93;7.40;;;;;;;32.71;29.94;98888.95;1703287;84;20995;-69
2022/08/28 08:55:06;;;;;;;49.10;5.65;;;;;;;32.90;29.65;98890.30;1646704;85;21184;-70
2022/08/28 08:57:34;;;;;;;26.42;5.15;;;;;;;33.09;28.10;98888.87;1627915;86;21491;-71
2022/08/28 09:00:05;;;;;;;33.85;5.40;;;;;;;32.96;28.46;98890.55;1648551;86;20959;-70
2022/08/28 09:02:37;;;;;;;18.20;4.40;;;;;;;32.85;28.64;98893.80;1658182;85;21744;-70
2022/08/28 09:05:09;;;;;;;50.83;6.45;;;;;;;32.83;28.50;98896.34;1657314;85;21004;-71
2022/08/28 09:07:57;;;;;;;78.30;8.33;;;;;;;32.79;28.61;98898.73;1667878;85;21167;-70
2022/08/28 09:10:41;;;;;;;55.58;8.63;;;;;;;32.95;29.48;98898.13;1696360;83;21014;-70
2022/08/28 09:13:13;;;;;;;88.17;8.63;;;;;;;33.20;28.20;98896.86;1692261;83;21756;-70
2022/08/28 09:15:44;;;;;;;61.77;7.60;;;;;;;33.31;28.19;98898.55;1699480;83;20957;-70
2022/08/28 09:18:20;;;;;;;396.00;29.35;;;;;;;33.40;28.50;98900.67;1698483;83;20993;-71
2022/08/28 09:20:53;;;;;;;289.68;19.82;;;;;;;33.57;27.87;98905.25;1700677;84;21174;-69
2022/08/28 09:23:22;;;;;;;128.90;10.98;;;;;;;33.76;28.41;98908.08;1700766;83;20965;-70
2022/08/28 09:25:54;;;;;;;63.48;7.87;;;;;;;33.82;28.09;98901.73;1702686;83;21254;-69
2022/08/28 09:28:33;;;;;;;21.97;4.97;;;;;;;33.80;28.12;98905.06;1696102;84;21040;-70
2022/08/28 09:31:11;;;;;;;28.73;5.03;;;;;;;33.85;28.17;98902.95;1680552;83;20996;-70
2022/08/28 09:33:48;;;;;;;50.52;5.55;;;;;;;33.84;26.91;98904.23;1705836;83;21157;-69
2022/08/28 09:36:36;;;;;;;19.75;4.45;;;;;;;33.81;26.51;98906.64;1692631;84;20926;-69
2022/08/28 09:39:20;;;;;;;33.20;5.53;;;;;;;33.73;26.83;98899.73;1696013;83;21032;-69
2022/08/28 09:45:19;;;;;;;31.27;5.80;;;;;;;33.71;25.92;98898.00;1701632;83;21481;-69
2022/08/28 09:47:58;;;;;;;50.48;6.95;;;;;;;33.59;27.15;98897.64;1700482;84;21236;-69
2022/08/28 09:50:32;;;;;;;33.63;4.95;;;;;;;33.59;26.04;98891.95;1702858;84;21520;-69
2022/08/28 09:53:14;;;;;;;108.40;8.95;;;;;;;33.56;26.76;98898.62;1702564;84;21544;-70
2022/08/28 09:56:10;;;;;;;22.73;4.70;;;;;;;33.59;26.35;98892.74;1697691;84;20962;-69
2022/08/28 09:58:52;;;;;;;28.95;5.55;;;;;;;33.53;27.17;98893.91;1707104;83;21072;-70
2022/08/28 10:01:30;;;;;;;19.17;4.37;;;;;;;33.46;26.93;98899.36;1709092;83;21328;-70
2022/08/28 10:04:29;;;;;;;76.05;9.70;;;;;;;33.43;26.92;98892.59;1692348;83;21057;-70
2022/08/28 10:07:05;;;;;;;30.40;6.17;;;;;;;33.55;27.69;98891.36;1700384;84;20906;-69
2022/08/28 10:09:47;;;;;;;34.43;5.25;;;;;;;33.75;26.92;98891.48;1698213;84;21489;-70
2022/08/28 10:12:32;;;;;;;21.87;4.70;;;;;;;33.79;26.47;98894.31;1697371;83;21014;-70
2022/08/28 10:15:13;;;;;;;75.15;7.40;;;;;;;33.76;26.89;98891.63;1696268;83;21265;-69
2022/08/28 10:17:51;;;;;;;83.22;8.73;;;;;;;33.74;27.48;98884.22;1697633;83;21084;-69
2022/08/28 10:20:51;;;;;;;414.23;25.95;;;;;;;33.91;27.06;98882.49;1697443;83;20978;-70
2022/08/28 10:23:57;;;;;;;31.00;5.20;;;;;;;34.15;27.58;98883.00;1710066;83;21515;-70
2022/08/28 10:27:06;;;;;;;23.65;4.62;;;;;;;34.32;26.21;98882.66;1675583;84;20994;-70
2022/08/28 10:29:51;;;;;;;18.57;4.35;;;;;;;34.07;26.63;98880.58;1696183;84;21144;-70
2022/08/28 10:32:41;;;;;;;21.15;3.92;;;;;;;34.04;25.44;98883.63;1696045;84;21425;-70
2022/08/28 10:35:16;;;;;;;509.70;30.13;;;;;;;34.03;25.99;98879.98;1673027;85;20988;-70
2022/08/28 10:38:15;;;;;;;32.25;6.20;;;;;;;34.16;27.03;98875.38;1673053;85;21055;-71
2022/08/28 10:41:03;;;;;;;33.95;5.45;;;;;;;34.43;25.20;98872.87;1677015;85;20985;-71
2022/08/28 10:43:46;;;;;;;85.67;6.92;;;;;;;34.62;24.99;98869.92;1669105;85;21226;-72
2022/08/28 10:46:22;;;;;;;56.30;8.40;;;;;;;34.75;24.94;98868.91;1673921;85;20922;-71
2022/08/28 10:48:59;;;;;;;14.53;4.17;;;;;;;34.91;24.93;98878.23;1667801;85;20886;-71
2022/08/28 10:51:44;;;;;;;36.33;6.00;;;;;;;34.90;23.90;98875.23;1668102;85;21494;-70
2022/08/28 10:54:22;;;;;;;199.75;13.05;;;;;;;34.84;24.16;98872.30;1665124;85;20957;-70
2022/08/28 10:57:18;;;;;;;25.70;4.47;;;;;;;34.74;23.88;98870.84;1630785;86;21159;-69
2022/08/28 10:59:47;;;;;;;33.67;5.42;;;;;;;34.75;24.15;98868.13;1621641;86;20963;-71
2022/08/28 11:02:15;;;;;;;837.10;110.50;;;;;;;34.76;24.80;98873.34;1670587;85;21538;-71
2022/08/28 11:04:42;;;;;;;220.97;25.08;;;;;;;34.85;24.11;98875.94;1662594;85;21012;-71
2022/08/28 11:07:11;;;;;;;17.42;4.28;;;;;;;34.88;23.82;98870.67;1650191;85;21019;-71
2022/08/28 11:09:47;;;;;;;128.40;11.60;;;;;;;34.81;23.96;98873.94;1662953;85;21090;-71
2022/08/28 11:12:23;;;;;;;112.10;9.05;;;;;;;34.87;24.82;98871.31;1622350;87;20960;-70
2022/08/28 11:14:54;;;;;;;53.35;6.55;;;;;;;35.13;25.32;98865.69;1644957;85;21573;-70
2022/08/28 11:17:27;;;;;;;1999.90;549.08;;;;;;;35.39;23.76;98870.02;1653049;86;21588;-70
2022/08/28 11:20:24;;;;;;;95.67;15.72;;;;;;;35.41;23.87;98881.07;1709782;83;21406;-70
2022/08/28 11:22:56;;;;;;;39.70;6.50;;;;;;;35.51;23.66;98875.20;1707694;83;21147;-70
2022/08/28 11:25:34;;;;;;;15.00;3.90;;;;;;;35.69;23.57;98877.73;1692109;83;21132;-71
2022/08/28 11:28:27;;;;;;;27.80;5.25;;;;;;;35.78;23.11;98877.58;1680728;83;20965;-70
2022/08/28 11:31:12;;;;;;;484.40;39.45;;;;;;;35.87;23.17;98873.12;1657412;84;21043;-69
2022/08/28 11:33:51;;;;;;;18.98;3.42;;;;;;;36.00;22.80;98870.64;1671029;85;20948;-69
2022/08/28 11:36:28;;;;;;;12.05;3.77;;;;;;;36.22;22.71;98874.34;1673410;85;21160;-69
2022/08/28 11:39:16;;;;;;;8.48;3.40;;;;;;;36.24;21.54;98869.55;1674313;85;21549;-69
2022/08/28 11:42:12;;;;;;;14.43;3.47;;;;;;;36.04;20.94;98874.06;1668974;85;20878;-69
2022/08/28 11:44:43;;;;;;;9.60;3.30;;;;;;;35.85;21.14;98875.70;1671435;85;20966;-69
2022/08/28 11:47:42;;;;;;;10.75;4.35;;;;;;;35.79;21.59;98869.82;1670958;85;21524;-69
2022/08/28 11:50:19;;;;;;;11.80;4.00;;;;;;;35.73;21.43;98872.59;1631140;85;21276;-70
2022/08/28 11:53:03;;;;;;;9.13;3.30;;;;;;;35.65;21.12;98875.11;1669009;85;20945;-70
2022/08/28 11:55:51;;;;;;;16.62;3.35;;;;;;;35.62;21.51;98880.39;1663862;85;21077;-70